1892 Hurricane NOT_NAMED (1892256N15343)


IBTrACS version v04r00. Visit IBTrACS website for data access.
Please direct all questions to the IBTrACS Q and A forum

Storm track - Intensity - Wind Radii - Intensity Data - Source Data - All data

Summary Information

Storm ID 1892256N15343
Start Sep 12 06Z
Max Intensity 90 kt (Sep 17 06Z)
End Sep 24 12Z
ATCF IDs
Track status Best track data.

Storm track plot

Map of storm track

Intensity plots

Map of storm track

Radial wind information

No radial wind information for this storm


Position and Intensity Table

BASIN ISO_TIME_________ NATURE LAT LON MLC WIND
degrees north degrees east kts
NA 1892-09-12 06:00:00 TS 14.90 -17.20 30
NA 09:00:00 TS 14.96 -17.60 35
NA 12:00:00 TS 15.00 -18.00 40
NA 15:00:00 TS 15.00 -18.40 45
NA 18:00:00 TS 15.00 -18.80 50
NA 21:00:00 TS 15.05 -19.20 52
NA 1892-09-13 00:00:00 TS 15.10 -19.60 55
NA 03:00:00 TS 15.10 -20.00 60
NA 06:00:00 TS 15.10 -20.40 65
NA 09:00:00 TS 15.14 -20.80 65
NA 12:00:00 TS 15.20 -21.20 65
NA 15:00:00 TS 15.26 -21.59 67
NA 18:00:00 TS 15.30 -22.00 70
NA 21:00:00 TS 15.31 -22.45 72
NA 1892-09-14 00:00:00 TS 15.30 -22.90 75
NA 03:00:00 TS 15.30 -23.31 77
NA 06:00:00 TS 15.30 -23.70 80
NA 09:00:00 TS 15.29 -24.08 82
NA 12:00:00 TS 15.30 -24.50 85
NA 15:00:00 TS 15.34 -25.03 85
NA 18:00:00 TS 15.40 -25.60 85
NA 21:00:00 TS 15.45 -26.15 85
NA 1892-09-15 00:00:00 TS 15.50 -26.70 85
NA 03:00:00 TS 15.56 -27.26 85
NA 06:00:00 TS 15.60 -27.80 85
NA 09:00:00 TS 15.59 -28.29 85
NA 12:00:00 TS 15.60 -28.80 85
NA 15:00:00 TS 15.69 -29.38 85
NA 18:00:00 TS 15.80 -30.00 85
NA 21:00:00 TS 15.85 -30.60 85
NA 1892-09-16 00:00:00 TS 15.90 -31.20 85
NA 03:00:00 TS 16.00 -31.81 85
NA 06:00:00 TS 16.10 -32.40 85
NA 09:00:00 TS 16.10 -32.97 85
NA 12:00:00 TS 16.20 -33.50 85
NA 15:00:00 TS 16.55 -33.96 85
NA 18:00:00 TS 17.00 -34.40 85
NA 21:00:00 TS 17.39 -34.85 85
NA 1892-09-17 00:00:00 TS 17.80 -35.30 85
NA 03:00:00 TS 18.25 -35.76 87
NA 06:00:00 TS 18.70 -36.20 90
NA 09:00:00 TS 19.11 -36.59 90
NA 12:00:00 TS 19.50 -37.00 90
NA 15:00:00 TS 19.91 -37.53 90
NA 18:00:00 TS 20.30 -38.10 90
NA 21:00:00 TS 20.65 -38.68 90
NA 1892-09-18 00:00:00 TS 21.00 -39.20 90
NA 03:00:00 TS 21.40 -39.59 90
NA 06:00:00 TS 21.80 -39.90 90
NA 09:00:00 TS 22.13 -40.18 90
NA 12:00:00 TS 22.50 -40.50 90
NA 15:00:00 TS 22.98 -40.97 90
NA 18:00:00 TS 23.50 -41.50 90
NA 21:00:00 TS 24.00 -42.00 90
NA 1892-09-19 00:00:00 TS 24.50 -42.50 90
NA 03:00:00 TS 25.00 -43.00 87
NA 06:00:00 TS 25.50 -43.50 85
NA 09:00:00 TS 26.02 -43.99 85
NA 12:00:00 TS 26.50 -44.50 85
NA 15:00:00 TS 26.87 -45.04 85
NA 18:00:00 TS 27.20 -45.60 85
NA 21:00:00 TS 27.55 -46.15 85
NA 1892-09-20 00:00:00 TS 27.90 -46.70 85
NA 03:00:00 TS 28.26 -47.26 85
NA 06:00:00 TS 28.60 -47.80 85
NA 09:00:00 TS 28.86 -48.27 85
NA 12:00:00 TS 29.20 -48.80 85
NA 15:00:00 TS 29.76 -49.57 82
NA 18:00:00 TS 30.40 -50.30 80
NA 21:00:00 TS 31.00 -50.78 80
NA 1892-09-21 00:00:00 TS 31.60 -51.00 80
NA 03:00:00 TS 32.20 -50.99 80
NA 06:00:00 TS 32.80 -50.80 80
NA 09:00:00 TS 33.43 -50.58 77
NA 12:00:00 TS 34.00 -50.30 75
NA 15:00:00 TS 34.44 -50.01 72
NA 18:00:00 TS 34.80 -49.70 70
NA 21:00:00 TS 35.15 -49.53 70
NA 1892-09-22 00:00:00 TS 35.50 -49.00 70
NA 03:00:00 TS 35.90 -47.67 70
NA 06:00:00 TS 36.30 -46.00 70
NA 09:00:00 TS 36.54 -44.53 67
NA 12:00:00 TS 37.00 -43.00 65
NA 15:00:00 TS 37.99 -41.29 62
NA 18:00:00 TS 39.20 -39.50 60
NA 21:00:00 TS 40.25 -37.74 60
NA 1892-09-23 00:00:00 TS 41.30 -36.00 60
NA 03:00:00 TS 42.35 -34.24 60
NA 06:00:00 TS 43.40 -32.50 60
NA 09:00:00 TS 44.62 -30.63 60
NA 12:00:00 TS 45.50 -29.00 60
NA 15:00:00 TS 45.61 -28.01 57
NA 18:00:00 ET 45.40 -27.30 55
NA 21:00:00 ET 45.35 -26.40 55
NA 1892-09-24 00:00:00 ET 45.30 -25.50 55
NA 03:00:00 ET 45.24 -24.65 52
NA 06:00:00 ET 45.20 -23.80 50
NA 09:00:00 ET 45.19 -22.91 50
NA 12:00:00 ET 45.20 -22.00 50

Source Information

Agency Information
USA
TOKYO
CMA
HKO
NEWDELHI
REUNION
BOM
NADI
WELLINGTON
DS824
TD9636
TD9635
NEUMANN
MLC

All available IBTrACS Data

SEASON BASIN SUBBASIN ISO_TIME_________ NATURE LAT LON DIST2LAND LANDFALL IFLAG USA SSHS MLC LAT MLC LON MLC CLASS MLC WIND STORM SPEED STORM DIR
Year degrees north degrees east km km 1 degrees north degrees east kts kts degrees
1892 NA NA 1892-09-12 06:00:00 TS 14.90 -17.20 10 10 _____________O -1 14.90 -17.20 TD 30 8 279
1892 NA NA 09:00:00 TS 14.96 -17.60 35 35 _____________P -1 14.96 -17.60 TD 35 8 277
1892 NA NA 12:00:00 TS 15.00 -18.00 63 63 _____________O -1 15.00 -18.00 TS 40 8 273
1892 NA NA 15:00:00 TS 15.00 -18.40 102 102 _____________P -1 15.00 -18.40 TS 45 8 270
1892 NA NA 18:00:00 TS 15.00 -18.80 143 143 _____________O -1 15.00 -18.80 TS 50 8 274
1892 NA NA 21:00:00 TS 15.05 -19.20 185 185 _____________P -1 15.05 -19.20 TS 52 8 277
1892 NA NA 1892-09-13 00:00:00 TS 15.10 -19.60 230 230 _____________O -1 15.10 -19.60 TS 55 8 274
1892 NA NA 03:00:00 TS 15.10 -20.00 272 272 _____________P -1 15.10 -20.00 TS 60 8 270
1892 NA NA 06:00:00 TS 15.10 -20.40 314 314 _____________O -1 15.10 -20.40 HU 65 8 273
1892 NA NA 09:00:00 TS 15.14 -20.80 357 357 _____________P -1 15.14 -20.80 HU 65 8 277
1892 NA NA 12:00:00 TS 15.20 -21.20 401 401 _____________O -1 15.20 -21.20 HU 65 8 279
1892 NA NA 15:00:00 TS 15.26 -21.59 445 445 _____________P -1 15.26 -21.59 HU 67 8 277
1892 NA NA 18:00:00 TS 15.30 -22.00 488 488 _____________O -1 15.30 -22.00 HU 70 8 273
1892 NA NA 21:00:00 TS 15.31 -22.45 541 541 _____________P -1 15.31 -22.45 HU 72 9 270
1892 NA NA 1892-09-14 00:00:00 TS 15.30 -22.90 584 584 _____________O -1 15.30 -22.90 HU 75 8 269
1892 NA NA 03:00:00 TS 15.30 -23.31 626 626 _____________P -1 15.30 -23.31 HU 77 8 270
1892 NA NA 06:00:00 TS 15.30 -23.70 669 669 _____________O -1 15.30 -23.70 HU 80 7 269
1892 NA NA 09:00:00 TS 15.29 -24.08 712 712 _____________P -1 15.29 -24.08 HU 82 8 270
1892 NA NA 12:00:00 TS 15.30 -24.50 755 755 _____________O -1 15.30 -24.50 HU 85 9 273
1892 NA NA 15:00:00 TS 15.34 -25.03 808 808 _____________P -1 15.34 -25.03 HU 85 11 275
1892 NA NA 18:00:00 TS 15.40 -25.60 873 873 _____________O -1 15.40 -25.60 HU 85 11 276
1892 NA NA 21:00:00 TS 15.45 -26.15 937 937 _____________P -1 15.45 -26.15 HU 85 11 275
1892 NA NA 1892-09-15 00:00:00 TS 15.50 -26.70 992 992 _____________O -1 15.50 -26.70 HU 85 11 276
1892 NA NA 03:00:00 TS 15.56 -27.26 1056 1056 _____________P -1 15.56 -27.26 HU 85 11 275
1892 NA NA 06:00:00 TS 15.60 -27.80 1110 1110 _____________O -1 15.60 -27.80 HU 85 10 272
1892 NA NA 09:00:00 TS 15.59 -28.29 1163 1163 _____________P -1 15.59 -28.29 HU 85 10 270
1892 NA NA 12:00:00 TS 15.60 -28.80 1217 1217 _____________O -1 15.60 -28.80 HU 85 11 275
1892 NA NA 15:00:00 TS 15.69 -29.38 1282 1282 _____________P -1 15.69 -29.38 HU 85 12 280
1892 NA NA 18:00:00 TS 15.80 -30.00 1346 1346 _____________O -1 15.80 -30.00 HU 85 12 278
1892 NA NA 21:00:00 TS 15.85 -30.60 1411 1411 _____________P -1 15.85 -30.60 HU 85 12 275
1892 NA NA 1892-09-16 00:00:00 TS 15.90 -31.20 1475 1475 _____________O -1 15.90 -31.20 HU 85 12 277
1892 NA NA 03:00:00 TS 16.00 -31.81 1540 1540 _____________P -1 16.00 -31.81 HU 85 12 280
1892 NA NA 06:00:00 TS 16.10 -32.40 1605 1605 _____________O -1 16.10 -32.40 HU 85 11 275
1892 NA NA 09:00:00 TS 16.10 -32.97 1669 1669 _____________P -1 16.10 -32.97 HU 85 11 275
1892 NA NA 12:00:00 TS 16.20 -33.50 1723 1723 _____________O -1 16.20 -33.50 HU 85 11 295
1892 NA NA 15:00:00 TS 16.55 -33.96 1778 1778 _____________P -1 16.55 -33.96 HU 85 12 313
1892 NA NA 18:00:00 TS 17.00 -34.40 1825 1825 _____________O -1 17.00 -34.40 HU 85 12 315
1892 NA NA 21:00:00 TS 17.39 -34.85 1883 1883 _____________P -1 17.39 -34.85 HU 85 12 313
1892 NA NA 1892-09-17 00:00:00 TS 17.80 -35.30 1931 1931 _____________O -1 17.80 -35.30 HU 85 12 315
1892 NA NA 03:00:00 TS 18.25 -35.76 1980 1978 _____________P -1 18.25 -35.76 HU 87 12 316
1892 NA NA 06:00:00 TS 18.70 -36.20 2011 2011 _____________O -1 18.70 -36.20 HU 90 12 318
1892 NA NA 09:00:00 TS 19.11 -36.59 2045 2043 _____________P -1 19.11 -36.59 HU 90 11 317
1892 NA NA 12:00:00 TS 19.50 -37.00 2080 2080 _____________O -1 19.50 -37.00 HU 90 12 312
1892 NA NA 15:00:00 TS 19.91 -37.53 2127 2127 _____________P -1 19.91 -37.53 HU 90 13 308
1892 NA NA 18:00:00 TS 20.30 -38.10 2185 2185 _____________O -1 20.30 -38.10 HU 90 13 304
1892 NA NA 21:00:00 TS 20.65 -38.68 2243 2243 _____________P -1 20.65 -38.68 HU 90 12 304
1892 NA NA 1892-09-18 00:00:00 TS 21.00 -39.20 2281 2281 _____________O -1 21.00 -39.20 HU 90 11 311
1892 NA NA 03:00:00 TS 21.40 -39.59 2292 2292 _____________P -1 21.40 -39.59 HU 90 10 321
1892 NA NA 06:00:00 TS 21.80 -39.90 2307 2307 _____________O -1 21.80 -39.90 HU 90 9 323
1892 NA NA 09:00:00 TS 22.13 -40.18 2315 2315 _____________P -1 22.13 -40.18 HU 90 9 322
1892 NA NA 12:00:00 TS 22.50 -40.50 2332 2332 _____________O -1 22.50 -40.50 HU 90 11 319
1892 NA NA 15:00:00 TS 22.98 -40.97 2349 2349 _____________P -1 22.98 -40.97 HU 90 14 317
1892 NA NA 18:00:00 TS 23.50 -41.50 2368 2368 _____________O -1 23.50 -41.50 HU 90 14 317
1892 NA NA 21:00:00 TS 24.00 -42.00 2390 2390 _____________P -1 24.00 -42.00 HU 90 14 318
1892 NA NA 1892-09-19 00:00:00 TS 24.50 -42.50 2414 2414 _____________O -1 24.50 -42.50 HU 90 14 318
1892 NA NA 03:00:00 TS 25.00 -43.00 2440 2408 _____________P -1 25.00 -43.00 HU 87 14 318
1892 NA NA 06:00:00 TS 25.50 -43.50 2408 2375 _____________O -1 25.50 -43.50 HU 85 14 319
1892 NA NA 09:00:00 TS 26.02 -43.99 2375 2344 _____________P -1 26.02 -43.99 HU 85 13 318
1892 NA NA 12:00:00 TS 26.50 -44.50 2344 2308 _____________O -1 26.50 -44.50 HU 85 13 312
1892 NA NA 15:00:00 TS 26.87 -45.04 2309 2260 _____________P -1 26.87 -45.04 HU 85 12 306
1892 NA NA 18:00:00 TS 27.20 -45.60 2260 2215 _____________O -1 27.20 -45.60 HU 85 12 305
1892 NA NA 21:00:00 TS 27.55 -46.15 2213 2158 _____________P -1 27.55 -46.15 HU 85 12 306
1892 NA NA 1892-09-20 00:00:00 TS 27.90 -46.70 2158 2114 _____________O -1 27.90 -46.70 HU 85 12 306
1892 NA NA 03:00:00 TS 28.26 -47.26 2101 2058 _____________P -1 28.26 -47.26 HU 85 12 306
1892 NA NA 06:00:00 TS 28.60 -47.80 2058 2029 _____________O -1 28.60 -47.80 HU 85 11 304
1892 NA NA 09:00:00 TS 28.86 -48.27 2016 1974 _____________P -1 28.86 -48.27 HU 85 11 304
1892 NA NA 12:00:00 TS 29.20 -48.80 1974 1908 _____________O -1 29.20 -48.80 HU 85 14 308
1892 NA NA 15:00:00 TS 29.76 -49.57 1896 1820 _____________P -1 29.76 -49.57 HU 82 18 313
1892 NA NA 18:00:00 TS 30.40 -50.30 1820 1748 _____________O -1 30.40 -50.30 HU 80 16 320
1892 NA NA 21:00:00 TS 31.00 -50.78 1748 1680 _____________P -1 31.00 -50.78 HU 80 13 333
1892 NA NA 1892-09-21 00:00:00 TS 31.60 -51.00 1680 1613 _____________O -1 31.60 -51.00 HU 80 12 351
1892 NA NA 03:00:00 TS 32.20 -50.99 1613 1549 _____________P -1 32.20 -50.99 HU 80 12 8
1892 NA NA 06:00:00 TS 32.80 -50.80 1549 1485 _____________O -1 32.80 -50.80 HU 80 13 16
1892 NA NA 09:00:00 TS 33.43 -50.58 1485 1423 _____________P -1 33.43 -50.58 HU 77 13 19
1892 NA NA 12:00:00 TS 34.00 -50.30 1423 1382 _____________O -1 34.00 -50.30 HU 75 11 25
1892 NA NA 15:00:00 TS 34.44 -50.01 1383 1345 _____________P -1 34.44 -50.01 HU 72 9 32
1892 NA NA 18:00:00 TS 34.80 -49.70 1345 1314 _____________O -1 34.80 -49.70 HU 70 8 29
1892 NA NA 21:00:00 TS 35.15 -49.53 1316 1281 _____________P -1 35.15 -49.53 HU 70 9 39
1892 NA NA 1892-09-22 00:00:00 TS 35.50 -49.00 1283 1271 _____________O -1 35.50 -49.00 HU 70 17 63
1892 NA NA 03:00:00 TS 35.90 -47.67 1274 1273 _____________P -1 35.90 -47.67 HU 70 26 72
1892 NA NA 06:00:00 TS 36.30 -46.00 1291 1291 _____________O -1 36.30 -46.00 HU 70 26 76
1892 NA NA 09:00:00 TS 36.54 -44.53 1333 1328 _____________P -1 36.54 -44.53 HU 67 25 74
1892 NA NA 12:00:00 TS 37.00 -43.00 1357 1357 _____________O -1 37.00 -43.00 HU 65 30 61
1892 NA NA 15:00:00 TS 37.99 -41.29 1363 1360 _____________P -1 37.99 -41.29 HU 62 35 51
1892 NA NA 18:00:00 TS 39.20 -39.50 1379 1378 _____________O -1 39.20 -39.50 TS 60 36 51
1892 NA NA 21:00:00 TS 40.25 -37.74 1421 1421 _____________P -1 40.25 -37.74 TS 60 34 52
1892 NA NA 1892-09-23 00:00:00 TS 41.30 -36.00 1479 1479 _____________O -1 41.30 -36.00 TS 60 34 51
1892 NA NA 03:00:00 TS 42.35 -34.24 1550 1547 _____________P -1 42.35 -34.24 TS 60 33 51
1892 NA NA 06:00:00 TS 43.40 -32.50 1621 1621 _____________O -1 43.40 -32.50 TS 60 35 49
1892 NA NA 09:00:00 TS 44.62 -30.63 1683 1529 _____________P -1 44.62 -30.63 TS 60 33 50
1892 NA NA 12:00:00 TS 45.50 -29.00 1523 1459 _____________O -1 45.50 -29.00 TS 60 21 62
1892 NA NA 15:00:00 TS 45.61 -28.01 1453 1421 _____________P -1 45.61 -28.01 TS 57 12 95
1892 NA NA 18:00:00 ET 45.40 -27.30 1421 1371 _____________O -1 45.40 -27.30 EX 55 12 103
1892 NA NA 21:00:00 ET 45.35 -26.40 1372 1310 _____________P -1 45.35 -26.40 EX 55 13 95
1892 NA NA 1892-09-24 00:00:00 ET 45.30 -25.50 1310 1247 _____________O -1 45.30 -25.50 EX 55 12 95
1892 NA NA 03:00:00 ET 45.24 -24.65 1239 1177 _____________P -1 45.24 -24.65 EX 52 12 95
1892 NA NA 06:00:00 ET 45.20 -23.80 1177 1115 _____________O -1 45.20 -23.80 EX 50 12 92
1892 NA NA 09:00:00 ET 45.19 -22.91 1107 1045 _____________P -1 45.19 -22.91 EX 50 13 90
1892 NA NA 12:00:00 ET 45.20 -22.00 1038 _____________O -1 45.20 -22.00 EX 50 13 89